Time;durP1;ratioP1;P1;durP2;ratioP2;P2;SDS_P1;SDS_P2;PMS_P1;PMS_P2;Temp;Humidity;BMP_temperature;BMP_pressure;BME280_temperature;BME280_humidity;BME280_pressure;Samples;Min_cycle;Max_cycle;Signal;HPM_P1;HPM_P2
2021/09/14 00:01:47;;;;;;;9.75;7.00;;;17.20;99.90;;;;;;5023996;28;20651;-69
2021/09/14 00:04:14;;;;;;;10.93;6.47;;;17.20;99.90;;;;;;5032558;28;20210;-69
2021/09/14 00:06:41;;;;;;;10.25;6.53;;;17.20;99.90;;;;;;5031521;28;20234;-71
2021/09/14 00:09:09;;;;;;;8.00;6.40;;;17.10;99.90;;;;;;5031873;28;20222;-70
2021/09/14 00:11:39;;;;;;;8.20;6.20;;;17.10;99.90;;;;;;5031919;28;20203;-70
2021/09/14 00:14:06;;;;;;;9.10;6.40;;;17.00;99.90;;;;;;5032205;28;20260;-69
2021/09/14 00:16:34;;;;;;;7.87;6.37;;;16.90;99.90;;;;;;5033241;28;20214;-70
2021/09/14 00:19:01;;;;;;;8.37;6.37;;;16.90;99.90;;;;;;5031748;28;20660;-69
2021/09/14 00:21:28;;;;;;;9.80;7.10;;;16.90;99.90;;;;;;5030687;28;20244;-70
2021/09/14 00:23:54;;;;;;;9.53;6.70;;;16.90;99.90;;;;;;5031825;28;20207;-70
2021/09/14 00:26:22;;;;;;;10.37;7.10;;;16.90;99.90;;;;;;5030493;28;20218;-71
2021/09/14 00:28:49;;;;;;;9.20;6.43;;;16.90;99.90;;;;;;5031380;28;20203;-70
2021/09/14 00:31:16;;;;;;;11.27;6.40;;;16.80;99.90;;;;;;5030920;28;20213;-70
2021/09/14 00:33:43;;;;;;;7.70;6.27;;;16.70;99.90;;;;;;5031482;28;20654;-71
2021/09/14 00:36:10;;;;;;;11.77;6.87;;;16.70;99.90;;;;;;5026006;28;20663;-71
2021/09/14 00:38:36;;;;;;;8.67;7.03;;;16.70;99.90;;;;;;5030656;28;20222;-70
2021/09/14 00:41:03;;;;;;;9.47;7.10;;;16.70;99.90;;;;;;5030660;28;20226;-70
2021/09/14 00:43:31;;;;;;;9.63;6.70;;;16.70;99.90;;;;;;5031257;28;20221;-70
2021/09/14 00:45:58;;;;;;;8.47;6.60;;;16.70;99.90;;;;;;5030866;28;20298;-69
2021/09/14 00:48:25;;;;;;;8.73;6.50;;;16.70;99.90;;;;;;5031125;28;20203;-69
2021/09/14 00:50:52;;;;;;;8.27;6.53;;;16.70;99.90;;;;;;5031303;28;20205;-70
2021/09/14 00:53:20;;;;;;;9.17;6.53;;;16.70;99.90;;;;;;5030966;28;20297;-70
2021/09/14 00:55:47;;;;;;;11.97;7.43;;;16.70;99.90;;;;;;5031072;28;20234;-70
2021/09/14 00:58:14;;;;;;;11.63;6.93;;;16.80;99.90;;;;;;5030791;28;20571;-70
2021/09/14 01:00:42;;;;;;;8.60;6.67;;;16.80;99.90;;;;;;5030237;28;20222;-70
2021/09/14 01:03:08;;;;;;;8.80;6.23;;;16.80;99.90;;;;;;5030276;28;20202;-70
2021/09/14 01:05:35;;;;;;;7.23;6.40;;;16.80;99.90;;;;;;5030759;28;20210;-70
2021/09/14 01:08:02;;;;;;;7.70;6.47;;;16.90;99.90;;;;;;5026256;28;20242;-69
2021/09/14 01:10:29;;;;;;;10.10;6.77;;;16.90;99.90;;;;;;5030645;28;20215;-69
2021/09/14 01:12:56;;;;;;;10.07;6.53;;;16.90;99.90;;;;;;5030465;28;20233;-69
2021/09/14 01:15:25;;;;;;;8.87;6.47;;;16.80;99.90;;;;;;5032161;28;20682;-70
2021/09/14 01:17:53;;;;;;;8.87;6.33;;;16.80;99.90;;;;;;5034465;28;20256;-69
2021/09/14 01:20:20;;;;;;;10.73;6.80;;;16.80;99.90;;;;;;5035426;28;20206;-70
2021/09/14 01:22:50;;;;;;;9.20;6.50;;;16.80;99.90;;;;;;5034835;28;20206;-70
2021/09/14 01:25:18;;;;;;;10.70;7.27;;;16.80;99.90;;;;;;5033156;28;20285;-70
2021/09/14 01:27:45;;;;;;;9.03;6.60;;;16.70;99.90;;;;;;5034213;28;20210;-70
2021/09/14 01:30:18;;;;;;;10.30;6.60;;;16.70;99.90;;;;;;5034626;28;20655;-69
2021/09/14 01:32:45;;;;;;;13.83;7.27;;;16.60;99.90;;;;;;5034412;28;20261;-70
2021/09/14 01:35:14;;;;;;;8.87;6.73;;;16.60;99.90;;;;;;5034645;28;20212;-69
2021/09/14 01:37:42;;;;;;;8.57;6.73;;;16.50;99.90;;;;;;5032568;28;20738;-70
2021/09/14 01:40:11;;;;;;;15.77;7.10;;;16.50;99.90;;;;;;5034378;28;20699;-70
2021/09/14 01:42:39;;;;;;;10.30;7.10;;;16.50;99.90;;;;;;5028619;28;20436;-70
2021/09/14 01:45:07;;;;;;;7.67;6.30;;;16.50;99.90;;;;;;5032209;28;20207;-69
2021/09/14 01:47:34;;;;;;;9.10;6.50;;;16.50;99.90;;;;;;5045171;28;20651;-70
2021/09/14 01:50:02;;;;;;;8.70;6.47;;;16.40;99.90;;;;;;5036809;28;20218;-70
2021/09/14 01:52:29;;;;;;;8.67;7.00;;;16.40;99.90;;;;;;5034736;28;20293;-70
2021/09/14 01:54:56;;;;;;;9.13;7.33;;;16.40;99.90;;;;;;5035037;28;20210;-72
2021/09/14 01:57:27;;;;;;;10.57;6.40;;;16.40;99.90;;;;;;5034221;28;20757;-70
2021/09/14 01:59:56;;;;;;;13.30;6.17;;;16.40;99.90;;;;;;5034072;28;20674;-69
2021/09/14 02:02:33;;;;;;;9.67;7.13;;;16.50;99.90;;;;;;5033516;28;20272;-69
2021/09/14 02:05:01;;;;;;;11.60;7.17;;;16.50;99.90;;;;;;5033851;28;20202;-70
2021/09/14 02:07:58;;;;;;;11.43;7.67;;;16.50;99.90;;;;;;5033689;28;20650;-70
2021/09/14 02:24:25;;;;;;;8.67;6.17;;;16.60;99.90;;;;;;5033876;28;20721;-71
2021/09/14 02:41:23;;;;;;;8.67;5.87;;;16.80;99.90;;;;;;4938108;28;20228;-70
2021/09/14 02:44:20;;;;;;;12.93;6.10;;;16.80;99.90;;;;;;5008101;28;20256;-69
2021/09/14 03:00:29;;;;;;;7.37;5.30;;;16.90;99.90;;;;;;5032591;28;20256;-69
2021/09/14 03:02:57;;;;;;;9.23;5.77;;;16.90;99.90;;;;;;5033048;28;20682;-69
2021/09/14 03:05:24;;;;;;;8.70;6.37;;;16.90;99.90;;;;;;5032544;28;20217;-70
2021/09/14 03:07:51;;;;;;;9.17;5.50;;;16.80;99.90;;;;;;5031978;28;20227;-69
2021/09/14 03:10:17;;;;;;;10.60;5.93;;;16.90;99.90;;;;;;5032778;28;20207;-70
2021/09/14 03:12:44;;;;;;;10.93;5.90;;;16.90;99.90;;;;;;5032819;28;20679;-69
2021/09/14 03:15:11;;;;;;;6.73;5.53;;;17.00;99.90;;;;;;5032761;28;20210;-70
2021/09/14 03:17:38;;;;;;;7.63;5.17;;;16.90;99.90;;;;;;5032706;28;20666;-69
2021/09/14 03:20:07;;;;;;;8.13;5.53;;;16.90;99.90;;;;;;5032619;28;20207;-69
2021/09/14 03:22:34;;;;;;;9.10;5.63;;;16.90;99.90;;;;;;5032585;28;20227;-71
2021/09/14 03:25:01;;;;;;;7.63;5.40;;;17.00;99.90;;;;;;5032449;28;20199;-69
2021/09/14 03:27:27;;;;;;;7.13;5.00;;;17.00;99.90;;;;;;5032407;28;20207;-70
2021/09/14 03:29:54;;;;;;;10.83;5.70;;;17.00;99.90;;;;;;5032181;28;20210;-70
2021/09/14 03:32:21;;;;;;;5.73;4.47;;;17.00;99.90;;;;;;5032209;28;20202;-69
2021/09/14 03:34:48;;;;;;;8.07;5.28;;;17.10;99.90;;;;;;5032093;28;20301;-69
2021/09/14 03:37:16;;;;;;;7.20;4.93;;;17.10;99.90;;;;;;5030846;28;20609;-70
2021/09/14 03:39:42;;;;;;;10.47;4.70;;;17.10;99.90;;;;;;5032265;28;20215;-70
2021/09/14 03:42:09;;;;;;;6.68;5.00;;;17.20;99.90;;;;;;5031203;28;20245;-69
2021/09/14 03:44:36;;;;;;;10.47;5.40;;;17.20;99.90;;;;;;5032140;28;20211;-70
2021/09/14 03:47:03;;;;;;;10.50;4.57;;;17.20;99.90;;;;;;5031968;28;20214;-70
2021/09/14 03:49:30;;;;;;;7.00;5.13;;;17.20;99.90;;;;;;5032640;28;20225;-69
2021/09/14 03:51:56;;;;;;;6.60;4.93;;;17.20;99.90;;;;;;5031741;28;20206;-71
2021/09/14 03:54:25;;;;;;;7.25;5.57;;;17.20;99.90;;;;;;5032078;28;20199;-70
2021/09/14 03:56:51;;;;;;;9.47;5.37;;;17.20;99.90;;;;;;5032211;28;20544;-70
2021/09/14 03:59:18;;;;;;;7.00;5.20;;;17.30;99.90;;;;;;5032105;28;20210;-69
2021/09/14 04:01:50;;;;;;;8.07;5.53;;;17.20;99.90;;;;;;5031720;28;20597;-70
2021/09/14 04:04:18;;;;;;;7.47;5.20;;;17.30;99.90;;;;;;5032773;28;20198;-71
2021/09/14 04:07:10;;;;;;;6.97;5.33;;;17.20;99.90;;;;;;5031529;28;20238;-70
2021/09/14 04:09:38;;;;;;;8.00;6.10;;;17.20;99.90;;;;;;5021764;28;20195;-70
2021/09/14 04:12:05;;;;;;;9.10;6.20;;;17.10;99.90;;;;;;5030790;28;20210;-70
2021/09/14 04:14:33;;;;;;;7.43;5.73;;;17.10;99.90;;;;;;5026603;28;20214;-70
2021/09/14 04:17:00;;;;;;;6.40;5.47;;;17.10;99.90;;;;;;5030788;28;20210;-70
2021/09/14 04:19:27;;;;;;;10.43;6.53;;;17.10;99.90;;;;;;5032600;28;20290;-70
2021/09/14 04:21:54;;;;;;;10.50;6.90;;;17.00;99.90;;;;;;5031542;28;20229;-70
2021/09/14 04:24:20;;;;;;;8.90;6.60;;;17.00;99.90;;;;;;5031459;28;20683;-70
2021/09/14 04:26:48;;;;;;;7.97;6.17;;;16.90;99.90;;;;;;5031486;28;20544;-69
2021/09/14 04:29:15;;;;;;;9.87;5.93;;;17.00;99.90;;;;;;5031838;28;20565;-70
2021/09/14 04:31:42;;;;;;;10.95;6.20;;;17.00;99.90;;;;;;5025757;28;20230;-70
2021/09/14 04:34:09;;;;;;;9.27;6.13;;;16.90;99.90;;;;;;5031459;28;20210;-70
2021/09/14 04:36:36;;;;;;;11.27;6.90;;;16.90;99.90;;;;;;5030918;28;20262;-69
2021/09/14 04:39:03;;;;;;;8.30;6.57;;;16.90;99.90;;;;;;5030798;28;20317;-70
2021/09/14 04:41:30;;;;;;;9.73;6.53;;;16.90;99.90;;;;;;5031120;28;20218;-69
2021/09/14 04:43:58;;;;;;;9.90;6.03;;;16.90;99.90;;;;;;5030893;28;20207;-70
2021/09/14 04:46:25;;;;;;;7.63;5.87;;;17.00;99.90;;;;;;5030547;28;20213;-71
2021/09/14 04:48:51;;;;;;;7.93;5.50;;;17.00;99.90;;;;;;5030699;28;20572;-70
2021/09/14 04:51:18;;;;;;;9.13;6.23;;;17.00;99.90;;;;;;5030894;28;20690;-71
2021/09/14 04:53:45;;;;;;;8.30;5.97;;;17.10;99.90;;;;;;5030755;28;20662;-70
2021/09/14 04:56:12;;;;;;;8.80;6.50;;;17.10;99.90;;;;;;5030711;28;20211;-69
2021/09/14 04:58:39;;;;;;;9.50;5.83;;;17.10;99.90;;;;;;5032492;28;20318;-70
2021/09/14 05:01:08;;;;;;;7.60;5.57;;;17.20;99.90;;;;;;5030442;28;20260;-69
2021/09/14 05:03:35;;;;;;;9.30;6.83;;;17.20;99.90;;;;;;5029954;28;20215;-70
2021/09/14 05:06:01;;;;;;;8.90;5.90;;;17.20;99.90;;;;;;5029981;28;20211;-70
2021/09/14 05:08:28;;;;;;;11.53;6.83;;;17.20;99.90;;;;;;5023853;28;20294;-72
2021/09/14 05:10:55;;;;;;;8.98;5.82;;;17.20;99.90;;;;;;5028029;28;20222;-71
2021/09/14 05:13:22;;;;;;;7.20;5.40;;;17.20;99.90;;;;;;5030273;28;20198;-71
2021/09/14 05:15:49;;;;;;;10.03;6.17;;;17.20;99.90;;;;;;5024298;28;20214;-69
2021/09/14 05:18:17;;;;;;;9.43;6.10;;;17.20;99.90;;;;;;5026593;28;20222;-69
2021/09/14 05:20:45;;;;;;;7.87;5.37;;;17.30;99.90;;;;;;5029549;28;20207;-69
2021/09/14 05:23:13;;;;;;;6.93;5.60;;;17.30;99.90;;;;;;5027907;28;20309;-69
2021/09/14 05:25:41;;;;;;;8.60;5.43;;;17.30;99.90;;;;;;5029943;28;20234;-68
2021/09/14 05:28:09;;;;;;;12.25;6.28;;;17.40;99.90;;;;;;5029710;28;20215;-68
2021/09/14 05:30:36;;;;;;;10.53;5.83;;;17.40;99.90;;;;;;5030176;28;20206;-70
2021/09/14 05:33:03;;;;;;;9.03;5.20;;;17.50;99.90;;;;;;5027680;28;20221;-70
2021/09/14 05:35:36;;;;;;;8.30;5.50;;;17.50;99.90;;;;;;5030262;28;20206;-70
2021/09/14 05:38:04;;;;;;;11.15;6.10;;;17.50;99.90;;;;;;5031159;28;20210;-70
2021/09/14 05:40:31;;;;;;;9.20;6.20;;;17.60;99.90;;;;;;5030638;28;20622;-68
2021/09/14 05:42:58;;;;;;;7.72;5.03;;;17.60;99.90;;;;;;5031015;28;20223;-68
2021/09/14 05:45:24;;;;;;;10.02;6.30;;;17.70;99.90;;;;;;5029652;28;20679;-68
2021/09/14 05:47:51;;;;;;;9.13;5.73;;;17.70;99.90;;;;;;5029812;28;20203;-69
2021/09/14 05:50:18;;;;;;;10.60;6.85;;;17.80;99.90;;;;;;5029468;28;20218;-67
2021/09/14 05:52:46;;;;;;;11.00;5.85;;;17.80;99.90;;;;;;5027339;28;20214;-67
2021/09/14 05:55:13;;;;;;;8.52;5.10;;;17.90;99.90;;;;;;5030811;28;20218;-68
2021/09/14 05:57:40;;;;;;;9.33;5.10;;;17.90;99.90;;;;;;5030105;28;20214;-66
2021/09/14 06:00:08;;;;;;;9.83;5.37;;;17.90;99.90;;;;;;5031146;28;20219;-66
2021/09/14 06:02:35;;;;;;;8.23;5.33;;;18.10;99.90;;;;;;5033895;28;20218;-68
2021/09/14 06:05:02;;;;;;;11.60;5.75;;;18.10;99.90;;;;;;5033759;28;20202;-67
2021/09/14 06:07:28;;;;;;;9.90;5.67;;;18.20;99.90;;;;;;5033664;28;20633;-68
2021/09/14 06:09:57;;;;;;;8.10;5.60;;;18.30;99.90;;;;;;5033974;28;20337;-67
2021/09/14 06:12:24;;;;;;;6.97;5.17;;;18.20;99.90;;;;;;5034492;28;20314;-66
2021/09/14 06:14:51;;;;;;;10.83;5.70;;;18.20;99.90;;;;;;5033311;28;20230;-67
2021/09/14 06:17:17;;;;;;;10.83;6.03;;;18.10;99.90;;;;;;5032709;28;20217;-67
2021/09/14 06:19:45;;;;;;;12.68;5.80;;;18.20;99.90;;;;;;5033370;28;20222;-66
2021/09/14 06:22:11;;;;;;;6.82;5.32;;;18.20;99.90;;;;;;5026263;28;20261;-68
2021/09/14 06:24:38;;;;;;;5.85;4.93;;;18.20;99.90;;;;;;5033504;28;20209;-68
2021/09/14 06:27:06;;;;;;;8.48;5.03;;;18.30;99.90;;;;;;5033357;28;20206;-68
2021/09/14 06:29:33;;;;;;;10.18;5.35;;;18.40;99.90;;;;;;5033071;28;20218;-67
2021/09/14 06:32:00;;;;;;;10.20;5.47;;;18.40;99.90;;;;;;5026067;28;20229;-68
2021/09/14 06:34:27;;;;;;;7.78;4.80;;;18.50;99.90;;;;;;5028852;28;20202;-67
2021/09/14 06:36:53;;;;;;;7.50;5.15;;;18.50;99.90;;;;;;5032463;28;20241;-67
2021/09/14 06:39:20;;;;;;;6.22;4.75;;;18.60;99.90;;;;;;5033484;28;20203;-67
2021/09/14 06:41:47;;;;;;;9.45;5.15;;;18.60;99.90;;;;;;5031791;28;20215;-69
2021/09/14 06:44:15;;;;;;;9.05;4.78;;;18.70;99.90;;;;;;5033180;28;20202;-68
2021/09/14 06:46:42;;;;;;;8.43;5.43;;;18.80;99.90;;;;;;5033028;28;20573;-68
2021/09/14 06:49:09;;;;;;;5.65;4.72;;;18.80;99.90;;;;;;5032848;28;20686;-68
2021/09/14 06:51:35;;;;;;;10.85;4.80;;;18.80;99.90;;;;;;5032261;28;20648;-68
2021/09/14 06:54:02;;;;;;;8.15;5.65;;;18.90;99.90;;;;;;5032450;28;20205;-67
2021/09/14 06:56:29;;;;;;;7.30;4.97;;;19.00;99.90;;;;;;5032390;28;20207;-68
2021/09/14 06:58:56;;;;;;;6.65;5.05;;;19.00;99.90;;;;;;5032560;28;20233;-68
2021/09/14 07:01:24;;;;;;;8.35;5.60;;;19.10;99.90;;;;;;5031723;28;20210;-67
2021/09/14 07:03:51;;;;;;;11.32;4.90;;;19.10;99.90;;;;;;5032366;28;20232;-68
2021/09/14 07:06:18;;;;;;;7.28;5.07;;;19.10;99.90;;;;;;5031631;28;20238;-67
2021/09/14 07:08:44;;;;;;;8.85;5.43;;;19.10;99.90;;;;;;5026331;28;20663;-66
2021/09/14 07:11:11;;;;;;;9.75;5.53;;;19.10;99.90;;;;;;5032409;28;20238;-68
2021/09/14 07:13:38;;;;;;;9.20;5.20;;;19.20;99.90;;;;;;5031445;28;20630;-66
2021/09/14 07:16:05;;;;;;;7.95;5.03;;;19.20;99.90;;;;;;5032067;28;20219;-67
2021/09/14 07:18:37;;;;;;;11.77;6.05;;;19.30;99.90;;;;;;5030694;28;20285;-68
2021/09/14 07:21:04;;;;;;;9.43;5.35;;;19.40;99.90;;;;;;5031691;28;20207;-68
2021/09/14 07:23:31;;;;;;;5.50;4.65;;;19.60;99.90;;;;;;5032418;28;20231;-67
2021/09/14 07:25:58;;;;;;;7.32;5.10;;;19.70;99.90;;;;;;5030849;28;20217;-67
2021/09/14 07:28:25;;;;;;;7.95;5.30;;;19.70;99.90;;;;;;5032355;28;20226;-68
2021/09/14 07:30:52;;;;;;;10.38;5.32;;;19.80;99.90;;;;;;5031617;28;20711;-68
2021/09/14 07:33:19;;;;;;;6.82;5.10;;;19.80;99.90;;;;;;5032141;28;20199;-67
2021/09/14 07:35:47;;;;;;;7.63;4.68;;;19.90;99.90;;;;;;5031605;28;20234;-67
2021/09/14 07:38:14;;;;;;;6.85;5.03;;;20.20;99.90;;;;;;5024009;28;20300;-67
2021/09/14 07:40:40;;;;;;;8.90;4.50;;;20.30;99.90;;;;;;5031823;28;20537;-67
2021/09/14 07:43:07;;;;;;;7.18;4.72;;;20.40;99.90;;;;;;5031797;28;20230;-67
2021/09/14 07:45:34;;;;;;;7.90;4.78;;;20.60;99.90;;;;;;5031425;28;20213;-67
2021/09/14 07:48:01;;;;;;;10.13;4.72;;;20.70;99.90;;;;;;5030974;28;20217;-67
2021/09/14 07:50:28;;;;;;;7.57;4.50;;;20.80;99.90;;;;;;5032008;28;20596;-68
2021/09/14 07:52:56;;;;;;;9.68;5.57;;;20.80;99.90;;;;;;5032035;28;20390;-68
2021/09/14 07:55:23;;;;;;;10.10;5.70;;;21.00;99.90;;;;;;5031244;28;20565;-69
2021/09/14 07:57:50;;;;;;;6.70;4.90;;;21.10;99.90;;;;;;5031389;28;20210;-67
2021/09/14 08:00:17;;;;;;;8.20;5.35;;;21.10;99.90;;;;;;5031480;28;20214;-67
2021/09/14 08:02:53;;;;;;;10.73;5.38;;;21.00;99.90;;;;;;5031635;28;20223;-67
2021/09/14 08:05:20;;;;;;;6.05;4.82;;;20.90;99.90;;;;;;5031169;28;20199;-68
2021/09/14 08:07:47;;;;;;;8.23;4.70;;;20.90;99.90;;;;;;5030948;28;20249;-67
2021/09/14 08:10:16;;;;;;;6.80;5.00;;;20.80;99.90;;;;;;5032180;28;20206;-68
2021/09/14 08:12:42;;;;;;;8.63;4.90;;;20.80;99.90;;;;;;5030850;28;20199;-68
2021/09/14 08:15:11;;;;;;;9.00;5.32;;;20.80;99.90;;;;;;5030318;28;20221;-68
2021/09/14 08:17:38;;;;;;;8.00;5.35;;;20.70;99.90;;;;;;5029470;28;20210;-67
2021/09/14 08:20:06;;;;;;;8.15;5.95;;;20.80;99.90;;;;;;5028067;28;20569;-69
2021/09/14 08:22:33;;;;;;;10.02;5.07;;;20.70;99.90;;;;;;5026939;28;20226;-68
2021/09/14 08:25:00;;;;;;;6.55;5.40;;;20.80;99.90;;;;;;5028807;28;20607;-68
2021/09/14 08:27:28;;;;;;;7.50;5.43;;;20.90;99.90;;;;;;5027076;28;20599;-68
2021/09/14 08:29:54;;;;;;;6.32;5.43;;;20.90;99.90;;;;;;5030131;28;20651;-70
2021/09/14 08:32:21;;;;;;;11.55;5.65;;;20.80;99.90;;;;;;5026257;28;20202;-69
2021/09/14 08:34:48;;;;;;;8.82;6.38;;;20.80;99.90;;;;;;5021051;28;20218;-68
2021/09/14 08:37:15;;;;;;;8.15;6.18;;;21.00;99.90;;;;;;5019463;28;20612;-68
2021/09/14 08:39:42;;;;;;;8.00;5.50;;;21.20;99.90;;;;;;5030343;28;20286;-70
2021/09/14 08:42:09;;;;;;;7.90;3.75;;;21.40;99.90;;;;;;5023841;28;20286;-70
2021/09/14 08:44:41;;;;;;;5.38;3.38;;;21.70;99.90;;;;;;5026559;28;20243;-70
2021/09/14 08:47:08;;;;;;;4.25;2.90;;;22.00;99.90;;;;;;5021436;28;20202;-68
2021/09/14 08:49:35;;;;;;;5.68;3.13;;;22.30;99.90;;;;;;5030050;28;20229;-67
2021/09/14 08:52:02;;;;;;;5.03;3.00;;;22.80;99.90;;;;;;5029753;28;20210;-68
2021/09/14 08:54:29;;;;;;;3.83;2.28;;;23.20;99.90;;;;;;5027029;28;20762;-68
2021/09/14 08:56:55;;;;;;;2.30;1.77;;;23.50;99.90;;;;;;5030445;28;20215;-69
2021/09/14 08:59:28;;;;;;;3.15;1.88;;;23.70;99.90;;;;;;5028904;28;20211;-68
2021/09/14 09:02:01;;;;;;;2.38;1.90;;;23.70;99.90;;;;;;5030042;28;20199;-69
2021/09/14 09:04:28;;;;;;;3.92;2.60;;;23.70;99.90;;;;;;5027372;28;20222;-67
2021/09/14 09:06:55;;;;;;;4.80;2.38;;;23.50;99.90;;;;;;5018669;28;20233;-68
2021/09/14 09:09:25;;;;;;;4.22;2.05;;;23.50;99.90;;;;;;5029957;28;20206;-68
2021/09/14 09:11:57;;;;;;;6.03;2.40;;;23.40;99.90;;;;;;5019556;28;20210;-68
2021/09/14 09:14:39;;;;;;;2.40;2.20;;;23.60;99.90;;;;;;5028806;28;20282;-69
2021/09/14 09:17:13;;;;;;;2.88;2.20;;;23.70;99.70;;;;;;5023786;28;20199;-67
2021/09/14 09:19:41;;;;;;;3.22;2.03;;;23.80;99.30;;;;;;5024429;28;20198;-68
2021/09/14 09:22:11;;;;;;;5.68;2.63;;;23.80;98.90;;;;;;5029691;28;20230;-68
2021/09/14 09:24:49;;;;;;;4.97;3.08;;;23.80;98.70;;;;;;5026065;28;20786;-68
2021/09/14 09:27:17;;;;;;;4.03;2.55;;;24.00;99.30;;;;;;5030046;28;20206;-69
2021/09/14 09:29:44;;;;;;;3.17;2.88;;;24.20;98.70;;;;;;5030364;28;20590;-68
2021/09/14 09:32:12;;;;;;;4.45;2.80;;;25.10;99.90;;;;;;5026814;28;20203;-67
2021/09/14 09:34:39;;;;;;;5.00;2.92;;;26.80;95.20;;;;;;5014596;28;20572;-68
2021/09/14 09:37:09;;;;;;;6.07;3.50;;;27.30;92.70;;;;;;5030865;28;20226;-67
2021/09/14 09:39:44;;;;;;;4.95;3.22;;;26.90;91.70;;;;;;5031595;28;20292;-69
2021/09/14 09:42:12;;;;;;;3.67;2.90;;;26.40;91.90;;;;;;5028423;28;20209;-67
2021/09/14 09:44:39;;;;;;;5.68;3.30;;;25.70;92.10;;;;;;5027690;28;20226;-68
2021/09/14 09:47:06;;;;;;;5.78;3.63;;;25.10;92.80;;;;;;5026371;28;20222;-69
2021/09/14 09:49:34;;;;;;;8.13;3.10;;;24.70;94.40;;;;;;5027928;28;20210;-68
2021/09/14 09:52:01;;;;;;;3.20;2.85;;;24.60;94.80;;;;;;5034317;28;20218;-68
2021/09/14 09:54:28;;;;;;;4.05;2.80;;;24.60;97.20;;;;;;5025758;28;20211;-70
2021/09/14 09:56:55;;;;;;;4.03;2.63;;;26.00;95.40;;;;;;5022435;28;20213;-67
2021/09/14 09:59:21;;;;;;;4.30;2.70;;;27.90;92.70;;;;;;5033573;28;20210;-68
2021/09/14 10:02:08;;;;;;;3.10;2.60;;;29.80;84.10;;;;;;5033435;28;20210;-68
2021/09/14 10:04:43;;;;;;;3.53;2.45;;;30.90;74.90;;;;;;5032184;28;20712;-67
2021/09/14 10:07:11;;;;;;;5.30;2.78;;;31.00;68.50;;;;;;5024453;28;20258;-68
2021/09/14 10:09:49;;;;;;;5.00;2.53;;;30.30;68.30;;;;;;5027490;28;20896;-69
2021/09/14 10:12:23;;;;;;;4.85;2.20;;;29.50;69.50;;;;;;5027029;28;20579;-68
2021/09/14 10:14:57;;;;;;;3.75;2.88;;;28.80;71.20;;;;;;5029739;28;20195;-68
2021/09/14 10:17:25;;;;;;;4.13;2.55;;;28.00;72.50;;;;;;5028474;28;20303;-68
2021/09/14 10:19:54;;;;;;;5.35;2.67;;;27.20;74.40;;;;;;5029160;28;20202;-68
2021/09/14 10:22:24;;;;;;;5.00;2.65;;;26.60;76.50;;;;;;5022894;28;20242;-67
2021/09/14 10:24:52;;;;;;;2.70;2.50;;;26.20;78.00;;;;;;5032421;28;20276;-68
2021/09/14 10:27:20;;;;;;;5.70;2.78;;;25.80;79.10;;;;;;5018472;28;20222;-69
2021/09/14 10:29:57;;;;;;;3.83;2.63;;;25.40;80.60;;;;;;5033544;28;20206;-69
2021/09/14 10:32:24;;;;;;;4.10;2.28;;;25.00;82.20;;;;;;5024436;28;20217;-68
2021/09/14 10:34:56;;;;;;;4.07;2.42;;;24.70;83.40;;;;;;5035670;28;20204;-69
2021/09/14 10:37:30;;;;;;;3.97;2.25;;;24.40;84.10;;;;;;5024009;28;20231;-68
2021/09/14 10:40:08;;;;;;;2.25;2.03;;;24.20;84.90;;;;;;5030810;28;20204;-69
2021/09/14 10:42:38;;;;;;;3.08;1.70;;;24.10;85.70;;;;;;5032073;28;20241;-68
2021/09/14 10:45:10;;;;;;;5.68;1.98;;;23.90;86.00;;;;;;5033482;28;20229;-69
2021/09/14 10:47:39;;;;;;;7.38;2.28;;;23.70;86.50;;;;;;5032428;28;20746;-67
2021/09/14 10:50:09;;;;;;;5.35;2.65;;;23.50;87.00;;;;;;5029433;28;20232;-67
2021/09/14 10:52:37;;;;;;;5.85;2.35;;;23.30;88.40;;;;;;5024270;28;20215;-67
2021/09/14 10:55:10;;;;;;;4.60;2.53;;;23.10;89.20;;;;;;5032889;28;20569;-65
2021/09/14 10:57:39;;;;;;;2.95;2.17;;;23.00;90.00;;;;;;5031929;28;20206;-67
2021/09/14 11:00:08;;;;;;;3.40;2.70;;;22.80;90.40;;;;;;5033283;28;20222;-68
2021/09/14 11:02:36;;;;;;;8.45;3.35;;;22.70;90.80;;;;;;5033132;28;20230;-69
2021/09/14 11:05:03;;;;;;;6.93;2.83;;;22.70;91.10;;;;;;5032353;28;20218;-68
2021/09/14 11:07:31;;;;;;;5.82;2.53;;;22.70;91.50;;;;;;5031661;28;20234;-67
2021/09/14 11:10:00;;;;;;;3.28;2.25;;;22.70;91.50;;;;;;5033794;28;20225;-66
2021/09/14 11:12:29;;;;;;;3.72;2.10;;;22.60;91.40;;;;;;5034402;28;20202;-67
2021/09/14 11:14:57;;;;;;;3.67;2.22;;;22.60;91.40;;;;;;5032771;28;20274;-67
2021/09/14 11:17:26;;;;;;;3.63;2.13;;;22.60;91.60;;;;;;5031888;28;20206;-68
2021/09/14 11:19:53;;;;;;;3.15;2.28;;;22.50;91.60;;;;;;5032958;28;20218;-67
2021/09/14 11:22:33;;;;;;;3.30;2.05;;;22.40;91.80;;;;;;5032641;28;20842;-67
2021/09/14 11:25:00;;;;;;;5.75;2.65;;;22.30;92.00;;;;;;5031918;28;20579;-68
2021/09/14 11:27:27;;;;;;;4.53;2.88;;;22.20;92.30;;;;;;5032753;28;20597;-68
2021/09/14 11:29:55;;;;;;;3.15;2.60;;;22.20;92.60;;;;;;5032900;28;20210;-67
2021/09/14 11:32:22;;;;;;;2.95;2.10;;;22.20;92.90;;;;;;5032808;28;20699;-68
2021/09/14 11:34:52;;;;;;;3.83;2.40;;;22.10;92.90;;;;;;5034024;28;20638;-67
2021/09/14 11:37:31;;;;;;;2.90;2.10;;;22.10;93.20;;;;;;5031236;28;20258;-67
2021/09/14 11:39:58;;;;;;;4.53;2.05;;;22.10;93.20;;;;;;5032453;28;20277;-66
2021/09/14 11:42:25;;;;;;;3.88;2.10;;;22.20;93.10;;;;;;5032850;28;20691;-66
2021/09/14 11:45:02;;;;;;;5.68;1.92;;;22.30;93.40;;;;;;5031674;28;20230;-65
2021/09/14 11:47:29;;;;;;;2.58;1.85;;;22.30;93.50;;;;;;5032942;28;20252;-67
2021/09/14 11:49:56;;;;;;;2.00;1.80;;;22.30;93.50;;;;;;5031952;28;20206;-67
2021/09/14 11:52:23;;;;;;;3.38;2.00;;;22.40;93.50;;;;;;5046782;28;20584;-66
2021/09/14 11:54:51;;;;;;;2.88;2.25;;;22.30;93.20;;;;;;5031821;28;20248;-66
2021/09/14 11:57:19;;;;;;;2.17;1.90;;;22.30;93.30;;;;;;5031730;28;20210;-67
2021/09/14 11:59:46;;;;;;;3.28;1.83;;;22.30;93.50;;;;;;5032732;28;20206;-67
2021/09/14 12:02:16;;;;;;;3.28;1.88;;;22.30;93.40;;;;;;5031846;28;20213;-67
2021/09/14 12:04:43;;;;;;;3.85;2.08;;;22.30;93.40;;;;;;5031667;28;20235;-67
2021/09/14 12:07:18;;;;;;;2.55;1.90;;;22.20;93.10;;;;;;5031966;28;20230;-67
2021/09/14 12:09:45;;;;;;;2.50;1.80;;;22.20;93.10;;;;;;5020925;28;20284;-67
2021/09/14 12:12:13;;;;;;;3.80;1.80;;;22.20;93.20;;;;;;5032115;28;20683;-67
2021/09/14 12:14:43;;;;;;;4.55;2.20;;;22.20;93.30;;;;;;5031042;28;20206;-66
2021/09/14 12:17:10;;;;;;;2.20;2.00;;;22.30;93.50;;;;;;5030982;28;20203;-68
2021/09/14 12:19:37;;;;;;;2.15;1.67;;;22.30;93.50;;;;;;5031501;28;20211;-68
2021/09/14 12:22:05;;;;;;;2.28;2.08;;;22.30;93.30;;;;;;5031283;28;20219;-67
2021/09/14 12:24:32;;;;;;;2.22;1.70;;;22.30;93.00;;;;;;5030227;28;20237;-68
2021/09/14 12:27:00;;;;;;;2.28;1.90;;;22.40;93.00;;;;;;5030358;28;20206;-68
2021/09/14 12:29:28;;;;;;;4.35;2.45;;;22.30;92.80;;;;;;5031293;28;20203;-68
2021/09/14 12:31:55;;;;;;;2.67;1.98;;;22.30;92.90;;;;;;5030543;28;20215;-68
2021/09/14 12:34:22;;;;;;;2.45;2.20;;;22.30;93.00;;;;;;5030587;28;20213;-66
2021/09/14 12:36:50;;;;;;;2.55;1.95;;;22.40;93.20;;;;;;5028088;28;20317;-67
2021/09/14 12:39:17;;;;;;;2.13;1.90;;;22.50;93.10;;;;;;5030302;28;20207;-67
2021/09/14 12:41:44;;;;;;;3.78;2.38;;;22.60;92.90;;;;;;5029483;28;20241;-66
2021/09/14 12:44:11;;;;;;;2.05;1.90;;;22.70;92.90;;;;;;5030564;28;20341;-67
2021/09/14 12:46:39;;;;;;;2.33;2.00;;;22.80;92.80;;;;;;5031738;28;20256;-66
2021/09/14 12:49:06;;;;;;;5.60;1.88;;;23.00;92.60;;;;;;5031919;28;20602;-67
2021/09/14 12:51:32;;;;;;;2.85;2.10;;;23.00;92.00;;;;;;5042461;28;20220;-68
2021/09/14 12:53:59;;;;;;;4.45;1.95;;;23.00;92.00;;;;;;5033057;28;20209;-68
2021/09/14 12:56:26;;;;;;;3.60;2.00;;;23.10;92.00;;;;;;5030153;28;20215;-67
2021/09/14 12:58:53;;;;;;;2.03;1.50;;;23.20;91.90;;;;;;5030493;28;20209;-69
2021/09/14 13:01:20;;;;;;;2.35;1.95;;;23.30;91.40;;;;;;5030864;28;20403;-68
2021/09/14 13:03:48;;;;;;;4.30;2.15;;;23.50;91.10;;;;;;5030784;28;20202;-68
2021/09/14 13:06:15;;;;;;;2.85;2.00;;;23.60;90.40;;;;;;5028678;28;20318;-67
2021/09/14 13:08:41;;;;;;;3.60;1.92;;;23.70;90.00;;;;;;5030647;28;20206;-68
2021/09/14 13:11:08;;;;;;;3.67;2.88;;;23.80;88.80;;;;;;5029837;28;20202;-68
2021/09/14 13:16:19;;;;;;;2.55;1.92;;;23.90;86.70;;;;;;5030673;28;20284;-68
2021/09/14 13:18:49;;;;;;;3.90;1.98;;;24.00;86.30;;;;;;5030519;28;20217;-67
2021/09/14 13:21:17;;;;;;;2.45;1.88;;;24.20;86.40;;;;;;5030394;28;20207;-68
2021/09/14 13:23:47;;;;;;;2.30;2.10;;;24.40;86.20;;;;;;5030890;28;20575;-68
2021/09/14 13:26:14;;;;;;;2.25;2.00;;;24.50;86.10;;;;;;5030513;28;20203;-67
2021/09/14 13:28:41;;;;;;;2.90;2.22;;;24.60;85.00;;;;;;5030487;28;20214;-68
2021/09/14 13:31:08;;;;;;;2.35;2.15;;;24.70;85.10;;;;;;5031176;28;20220;-68
2021/09/14 13:33:36;;;;;;;2.55;1.95;;;24.80;85.60;;;;;;5028939;28;20215;-68
2021/09/14 13:36:05;;;;;;;2.78;1.95;;;25.00;85.30;;;;;;5030474;28;20685;-68